Time;durP1;ratioP1;P1;durP2;ratioP2;P2;SDS_P1;SDS_P2;PMS_P1;PMS_P2;Temp;Humidity;BMP_temperature;BMP_pressure;BME280_temperature;BME280_humidity;BME280_pressure;Samples;Min_cycle;Max_cycle;Signal;HPM_P1;HPM_P2
2023/03/31 00:00:33;;;;;;;23.50;16.60;;;;;;;4.74;55.13;99267.73;106121;1256;68939;-71
2023/03/31 00:03:01;;;;;;;24.10;16.40;;;;;;;4.73;54.98;99271.41;105797;1251;72868;-71
2023/03/31 00:05:32;;;;;;;21.40;14.40;;;;;;;4.71;54.60;99269.30;106155;1251;60510;-73
2023/03/31 00:08:02;;;;;;;21.60;15.90;;;;;;;4.67;54.59;99267.87;106386;1251;60404;-71
2023/03/31 00:10:30;;;;;;;23.00;15.70;;;;;;;4.66;54.39;99266.98;106508;1255;74499;-75
2023/03/31 00:13:04;;;;;;;22.50;15.40;;;;;;;4.64;54.75;99264.46;106490;1253;70378;-70
2023/03/31 00:15:33;;;;;;;24.10;15.60;;;;;;;4.64;54.65;99265.36;106504;1251;72240;-70
2023/03/31 00:18:01;;;;;;;26.00;16.10;;;;;;;4.68;54.43;99267.48;106698;1253;60401;-71
2023/03/31 00:20:36;;;;;;;23.10;14.00;;;;;;;4.69;54.76;99261.58;106264;1253;60314;-71
2023/03/31 00:23:09;;;;;;;23.60;15.60;;;;;;;4.69;54.62;99261.00;106474;1255;73630;-72
2023/03/31 00:25:40;;;;;;;20.70;14.50;;;;;;;4.70;54.54;99261.27;106277;1251;71237;-72
2023/03/31 00:28:07;;;;;;;20.50;15.10;;;;;;;4.70;53.95;99256.90;107181;1253;70240;-72
2023/03/31 00:30:34;;;;;;;19.30;14.20;;;;;;;4.71;54.07;99253.29;109386;1251;59078;-72
2023/03/31 00:33:01;;;;;;;21.00;14.80;;;;;;;4.73;54.09;99251.77;109309;1253;59227;-73
2023/03/31 00:35:28;;;;;;;21.90;15.30;;;;;;;4.75;53.83;99243.64;109089;1253;73884;-70
2023/03/31 00:37:56;;;;;;;21.50;14.40;;;;;;;4.78;53.68;99243.58;109112;1252;70097;-70
2023/03/31 00:40:23;;;;;;;21.00;14.20;;;;;;;4.80;53.65;99237.90;109376;1252;73594;-73
2023/03/31 00:42:50;;;;;;;19.80;13.70;;;;;;;4.82;53.85;99235.42;109461;1251;59462;-72
2023/03/31 00:45:26;;;;;;;19.10;13.50;;;;;;;4.85;53.64;99231.84;109315;1252;59962;-72
2023/03/31 00:48:02;;;;;;;19.20;12.90;;;;;;;4.87;53.91;99228.70;109359;1251;72750;-72
2023/03/31 00:50:34;;;;;;;19.10;12.50;;;;;;;4.88;53.72;99225.25;109531;1251;68329;-73
2023/03/31 00:53:06;;;;;;;18.80;12.80;;;;;;;4.89;53.71;99224.45;109483;1251;72520;-73
2023/03/31 00:55:37;;;;;;;17.40;12.30;;;;;;;4.90;53.52;99220.32;109219;1251;58958;-72
2023/03/31 00:58:04;;;;;;;16.40;11.80;;;;;;;4.91;53.40;99218.83;107635;1251;60369;-74
2023/03/31 01:00:38;;;;;;;19.60;13.50;;;;;;;4.94;53.70;99218.39;109606;1252;72172;-73
2023/03/31 01:03:08;;;;;;;18.40;13.20;;;;;;;4.95;53.41;99219.48;109189;1251;69406;-71
2023/03/31 01:05:43;;;;;;;19.80;13.70;;;;;;;4.96;53.71;99214.38;107481;1251;71350;-72
2023/03/31 01:08:11;;;;;;;21.30;14.00;;;;;;;4.95;53.87;99212.35;107772;1251;60436;-72
2023/03/31 01:10:45;;;;;;;21.50;15.40;;;;;;;4.94;53.63;99204.84;109213;1252;60226;-73
2023/03/31 01:13:13;;;;;;;21.40;13.80;;;;;;;4.96;53.70;99203.84;109496;1253;72379;-73
2023/03/31 01:15:41;;;;;;;25.20;15.50;;;;;;;4.98;53.95;99203.84;109185;1253;72112;-73
2023/03/31 01:18:09;;;;;;;25.80;16.30;;;;;;;4.99;54.30;99204.96;109124;1253;72928;-73
2023/03/31 01:20:47;;;;;;;25.70;16.20;;;;;;;4.99;54.20;99202.23;109301;1253;59499;-72
2023/03/31 01:23:39;;;;;;;21.60;15.60;;;;;;;5.00;53.94;99196.42;109399;1252;57841;-71
2023/03/31 01:26:21;;;;;;;26.80;17.10;;;;;;;5.01;53.79;99187.84;109391;1251;72705;-73
2023/03/31 01:29:03;;;;;;;26.60;16.60;;;;;;;5.04;54.00;99190.23;109275;1254;69449;-72
2023/03/31 01:31:54;;;;;;;28.70;17.10;;;;;;;5.05;53.70;99186.95;109592;1251;72632;-71
2023/03/31 01:34:33;;;;;;;24.10;15.40;;;;;;;5.08;53.81;99180.20;109343;1252;59629;-72
2023/03/31 01:37:31;;;;;;;21.80;14.60;;;;;;;5.10;53.59;99180.48;109426;1253;60274;-71
2023/03/31 01:40:19;;;;;;;20.60;13.50;;;;;;;5.12;53.45;99174.92;109222;1251;73819;-72
2023/03/31 01:42:56;;;;;;;20.70;12.30;;;;;;;5.11;53.03;99170.02;107965;1253;71515;-73
2023/03/31 01:45:53;;;;;;;17.30;11.20;;;;;;;5.12;52.99;99164.55;108310;1251;72983;-70
2023/03/31 01:48:40;;;;;;;15.70;11.70;;;;;;;5.13;53.06;99161.83;109083;1252;58373;-71
2023/03/31 01:51:18;;;;;;;14.80;10.80;;;;;;;5.15;53.11;99159.53;109275;1253;60286;-72
2023/03/31 01:53:57;;;;;;;16.30;10.20;;;;;;;5.16;52.90;99158.17;107592;1255;74681;-70
2023/03/31 01:56:34;;;;;;;14.70;10.40;;;;;;;5.17;52.66;99155.85;108545;1253;69605;-70
2023/03/31 01:59:12;;;;;;;14.50;10.50;;;;;;;5.16;52.48;99156.10;109376;1253;71337;-71
2023/03/31 02:02:12;;;;;;;14.10;9.20;;;;;;;5.15;52.74;99155.32;109414;1251;59159;-71
2023/03/31 02:04:43;;;;;;;14.20;8.80;;;;;;;5.15;52.69;99152.46;109072;1252;331488;-72
2023/03/31 02:09:12;;;;;;;13.40;9.30;;;;;;;5.18;52.57;99138.89;103542;1292;601046;-73
2023/03/31 02:11:40;;;;;;;;;;;;;;;5.15;52.51;99133.73;105709;1264;59283;-72
2023/03/31 02:14:10;;;;;;;13.10;8.80;;;;;;;5.12;52.38;99128.38;105384;1270;60093;-70
2023/03/31 02:17:29;;;;;;;13.90;9.20;;;;;;;5.09;52.46;99120.97;105131;1269;73586;-73
2023/03/31 02:20:05;;;;;;;13.00;8.00;;;;;;;5.04;52.50;99116.64;105022;1270;72516;-73
2023/03/31 02:22:36;;;;;;;13.80;8.80;;;;;;;5.00;52.55;99116.73;105214;1263;210513;-73
2023/03/31 02:25:06;;;;;;;14.70;8.80;;;;;;;4.95;52.55;99116.34;105981;1257;59303;-73
2023/03/31 02:27:36;;;;;;;13.80;9.30;;;;;;;4.90;52.70;99115.55;105830;1254;61518;-72
2023/03/31 02:30:06;;;;;;;16.70;10.50;;;;;;;4.87;52.97;99113.78;105822;1254;71256;-73
2023/03/31 02:32:43;;;;;;;17.00;10.40;;;;;;;4.82;52.88;99110.34;105696;1254;71136;-71
2023/03/31 02:35:14;;;;;;;16.90;10.70;;;;;;;4.77;53.29;99098.02;105858;1259;73589;-73
2023/03/31 02:37:43;;;;;;;18.30;11.40;;;;;;;4.74;53.71;99095.52;105458;1254;59700;-72
2023/03/31 02:40:19;;;;;;;17.90;12.60;;;;;;;4.70;53.91;99097.63;105814;1254;61345;-71
2023/03/31 02:42:48;;;;;;;20.70;13.80;;;;;;;4.67;54.26;99095.15;105564;1260;72945;-73
2023/03/31 02:45:52;;;;;;;22.60;13.80;;;;;;;4.63;54.45;99090.98;105695;1260;69455;-73
2023/03/31 02:48:25;;;;;;;23.90;14.70;;;;;;;4.57;54.84;99091.31;105460;1254;73868;-74
2023/03/31 02:51:07;;;;;;;21.80;14.50;;;;;;;4.53;55.00;99092.63;105968;1254;60363;-76
2023/03/31 02:53:47;;;;;;;20.20;14.40;;;;;;;4.48;55.21;99096.38;105978;1255;61519;-71
2023/03/31 02:56:24;;;;;;;27.30;15.60;;;;;;;4.44;55.70;99097.82;105721;1256;71808;-75
2023/03/31 02:59:29;;;;;;;20.60;14.40;;;;;;;4.39;55.98;99101.84;105839;1254;71046;-74
2023/03/31 03:02:06;;;;;;;21.40;15.60;;;;;;;4.33;56.18;99093.44;105914;1254;73708;-72
2023/03/31 03:04:37;;;;;;;24.60;15.80;;;;;;;4.29;56.56;99091.86;106036;1259;59593;-73
2023/03/31 03:07:28;;;;;;;24.20;15.70;;;;;;;4.26;56.72;99088.63;105751;1259;60291;-72
2023/03/31 03:10:07;;;;;;;23.30;15.80;;;;;;;4.23;57.01;99088.02;105634;1260;74121;-73
2023/03/31 03:12:51;;;;;;;22.00;14.80;;;;;;;4.21;57.13;99088.25;105942;1256;70590;-72
2023/03/31 03:15:41;;;;;;;21.40;14.40;;;;;;;4.18;57.60;99091.16;105668;1256;73569;-73
2023/03/31 03:18:09;;;;;;;19.90;13.30;;;;;;;4.14;57.89;99091.31;105747;1256;60824;-71
2023/03/31 03:20:39;;;;;;;22.40;14.70;;;;;;;4.10;57.79;99090.25;105751;1255;61557;-72
2023/03/31 03:23:07;;;;;;;16.90;13.10;;;;;;;4.07;57.72;99093.71;105574;1258;74225;-72
2023/03/31 03:25:35;;;;;;;18.30;12.90;;;;;;;4.05;57.71;99092.17;105602;1257;70258;-71
2023/03/31 03:28:03;;;;;;;17.00;12.50;;;;;;;4.04;57.86;99086.09;105672;1256;73953;-71
2023/03/31 03:30:32;;;;;;;17.70;13.30;;;;;;;4.04;58.02;99081.55;105811;1257;60056;-71
2023/03/31 03:33:02;;;;;;;20.10;13.00;;;;;;;4.03;58.07;99081.66;105772;1260;61233;-73
2023/03/31 03:35:31;;;;;;;19.60;13.50;;;;;;;4.04;58.09;99078.79;105938;1253;74201;-72
2023/03/31 03:37:59;;;;;;;20.60;14.80;;;;;;;4.05;58.34;99074.68;105886;1254;69850;-71
2023/03/31 03:40:28;;;;;;;16.80;12.70;;;;;;;4.05;58.38;99073.41;105871;1256;73534;-71
2023/03/31 03:42:56;;;;;;;22.00;13.90;;;;;;;4.04;58.53;99071.89;105882;1254;60373;-72
2023/03/31 03:45:26;;;;;;;18.80;12.60;;;;;;;4.05;58.99;99073.27;105843;1253;62828;-71
2023/03/31 03:47:54;;;;;;;18.90;13.50;;;;;;;4.04;58.79;99071.04;105866;1257;73050;-71
2023/03/31 03:50:23;;;;;;;20.10;13.20;;;;;;;4.04;58.85;99072.39;105791;1254;70878;-69
2023/03/31 03:52:52;;;;;;;18.00;12.40;;;;;;;4.05;58.45;99072.34;105398;1254;73641;-73
2023/03/31 03:55:22;;;;;;;18.30;12.60;;;;;;;4.06;58.75;99072.38;105900;1254;60441;-71
2023/03/31 03:57:51;;;;;;;25.40;13.20;;;;;;;4.07;58.87;99063.61;105911;1254;61365;-72
2023/03/31 04:00:19;;;;;;;17.10;12.60;;;;;;;4.07;58.67;99057.41;105922;1256;71933;-71
2023/03/31 04:02:47;;;;;;;19.30;12.00;;;;;;;4.09;58.87;99053.06;105658;1254;71626;-72
2023/03/31 04:05:15;;;;;;;23.50;13.20;;;;;;;4.09;58.88;99053.02;105529;1259;72532;-71
2023/03/31 04:07:43;;;;;;;17.40;12.10;;;;;;;4.09;58.90;99049.20;105985;1256;59500;-71
2023/03/31 04:10:13;;;;;;;25.50;13.10;;;;;;;4.12;58.71;99056.56;106010;1254;61275;-73
2023/03/31 04:12:42;;;;;;;20.50;12.50;;;;;;;4.12;58.78;99060.96;106010;1256;74073;-70
2023/03/31 04:15:10;;;;;;;18.20;12.90;;;;;;;4.09;58.91;99051.66;105989;1254;71164;-72
2023/03/31 04:17:39;;;;;;;17.40;12.90;;;;;;;4.09;58.95;99056.86;105991;1254;73817;-71
2023/03/31 04:20:08;;;;;;;20.20;13.10;;;;;;;4.07;59.23;99052.67;105902;1256;59608;-72
2023/03/31 04:22:40;;;;;;;16.20;12.20;;;;;;;4.07;59.37;99053.41;105919;1254;60463;-71
2023/03/31 04:25:16;;;;;;;18.90;13.20;;;;;;;4.07;59.15;99051.98;106005;1254;71876;-71
2023/03/31 04:27:49;;;;;;;20.50;14.20;;;;;;;4.08;59.54;99048.58;105923;1254;70871;-74
2023/03/31 04:30:22;;;;;;;20.80;14.20;;;;;;;4.09;59.83;99045.36;105858;1257;73660;-72
2023/03/31 04:32:54;;;;;;;22.00;14.70;;;;;;;4.08;60.54;99038.56;105619;1254;59727;-73
2023/03/31 04:35:25;;;;;;;21.30;14.70;;;;;;;4.06;61.57;99039.81;105911;1254;61212;-74
2023/03/31 04:37:59;;;;;;;21.60;13.90;;;;;;;4.01;61.80;99040.27;105992;1252;73067;-74
2023/03/31 04:40:27;;;;;;;23.30;14.70;;;;;;;3.97;62.09;99036.53;105975;1254;70568;-74
2023/03/31 04:42:58;;;;;;;20.60;14.90;;;;;;;3.93;62.68;99037.38;106014;1257;73613;-75
2023/03/31 04:45:26;;;;;;;22.90;15.70;;;;;;;3.91;63.08;99032.14;106001;1253;60855;-73
2023/03/31 04:48:00;;;;;;;24.10;14.80;;;;;;;3.89;63.38;99033.87;106059;1254;60345;-72
2023/03/31 04:50:28;;;;;;;20.90;14.00;;;;;;;3.88;63.37;99027.51;106038;1253;74000;-73
2023/03/31 04:52:57;;;;;;;20.90;13.70;;;;;;;3.87;63.77;99028.77;106028;1257;69742;-72
2023/03/31 04:55:27;;;;;;;22.40;14.50;;;;;;;3.86;63.76;99021.20;105929;1254;73682;-72
2023/03/31 04:57:55;;;;;;;20.60;13.90;;;;;;;3.85;63.83;99020.23;105865;1254;60800;-71
2023/03/31 05:00:25;;;;;;;23.10;14.30;;;;;;;3.84;64.27;99014.77;106103;1253;61635;-72
2023/03/31 05:02:53;;;;;;;21.80;13.90;;;;;;;3.82;64.20;99012.46;106034;1254;73969;-72
2023/03/31 05:05:22;;;;;;;22.80;14.40;;;;;;;3.81;64.65;99009.05;106031;1256;70055;-72
2023/03/31 05:07:50;;;;;;;21.80;14.30;;;;;;;3.81;64.43;99002.78;105988;1253;72872;-72
2023/03/31 05:10:25;;;;;;;25.60;14.50;;;;;;;3.83;64.29;99002.27;105958;1254;60854;-71
2023/03/31 05:12:54;;;;;;;22.90;14.20;;;;;;;3.83;64.14;99002.23;106082;1254;59623;-73
2023/03/31 05:15:23;;;;;;;22.40;12.90;;;;;;;3.82;64.26;99006.64;106035;1253;72151;-72
2023/03/31 05:17:52;;;;;;;20.70;13.90;;;;;;;3.82;64.39;99005.48;106022;1254;69082;-73
2023/03/31 05:20:21;;;;;;;20.90;13.20;;;;;;;3.82;64.40;98995.44;105938;1255;71702;-70
2023/03/31 05:22:49;;;;;;;23.10;14.30;;;;;;;3.83;64.44;98989.60;105942;1256;59701;-73
2023/03/31 05:25:18;;;;;;;24.00;14.30;;;;;;;3.85;64.48;98986.66;105859;1254;60372;-75
2023/03/31 05:27:47;;;;;;;23.20;13.90;;;;;;;3.87;64.49;98983.60;105921;1253;74417;-72
2023/03/31 05:30:16;;;;;;;18.80;12.80;;;;;;;3.91;64.22;98985.34;105815;1257;69182;-72
2023/03/31 05:32:44;;;;;;;21.20;14.30;;;;;;;3.95;64.03;98986.05;105665;1259;73623;-72
2023/03/31 05:35:12;;;;;;;19.40;13.50;;;;;;;3.97;63.70;98980.20;105910;1254;60652;-73
2023/03/31 05:37:40;;;;;;;21.30;13.20;;;;;;;3.99;63.48;98977.56;106063;1254;61379;-75
2023/03/31 05:40:09;;;;;;;20.50;12.50;;;;;;;4.01;63.24;98964.61;106117;1253;73587;-72
2023/03/31 05:42:37;;;;;;;17.90;12.40;;;;;;;4.04;63.21;98955.09;105906;1254;70637;-74
2023/03/31 05:45:06;;;;;;;19.20;12.40;;;;;;;4.07;62.85;98951.97;105728;1259;72185;-73
2023/03/31 05:47:37;;;;;;;19.20;11.80;;;;;;;4.08;62.58;98943.24;105955;1252;61024;-72
2023/03/31 05:50:07;;;;;;;17.80;11.00;;;;;;;4.12;62.55;98939.91;105986;1253;60250;-73
2023/03/31 05:52:37;;;;;;;17.50;11.60;;;;;;;4.17;62.38;98935.30;105923;1253;70883;-72
2023/03/31 05:55:06;;;;;;;22.70;12.40;;;;;;;4.19;62.44;98930.86;105929;1253;71028;-72
2023/03/31 05:57:34;;;;;;;20.20;12.70;;;;;;;4.23;62.16;98933.09;105989;1254;73406;-72
2023/03/31 06:00:05;;;;;;;20.10;12.10;;;;;;;4.27;62.23;98935.17;105936;1256;59525;-73
2023/03/31 06:02:35;;;;;;;18.50;12.90;;;;;;;4.32;62.15;98937.30;105784;1253;59579;-72
2023/03/31 06:05:04;;;;;;;16.70;11.70;;;;;;;4.35;61.98;98931.48;105964;1254;72342;-74
2023/03/31 06:07:32;;;;;;;26.40;12.60;;;;;;;4.39;61.53;98927.19;106029;1255;69544;-73
2023/03/31 06:10:00;;;;;;;19.40;12.80;;;;;;;4.40;61.59;98924.44;105960;1254;71682;-71
2023/03/31 06:12:31;;;;;;;20.20;12.20;;;;;;;4.43;61.57;98920.13;105927;1254;59615;-73
2023/03/31 06:14:59;;;;;;;19.70;11.70;;;;;;;4.47;61.54;98918.46;106178;1256;61031;-73
2023/03/31 06:17:29;;;;;;;21.30;13.00;;;;;;;4.53;61.48;98920.70;105808;1253;72570;-72
2023/03/31 06:19:57;;;;;;;23.50;12.70;;;;;;;4.59;61.14;98929.06;105690;1254;69347;-71
2023/03/31 06:22:26;;;;;;;16.50;12.00;;;;;;;4.65;61.32;98938.79;106025;1256;73728;-70
2023/03/31 06:24:54;;;;;;;20.80;13.70;;;;;;;4.72;61.33;98943.07;105675;1257;60606;-73
2023/03/31 06:27:23;;;;;;;23.90;13.20;;;;;;;4.79;61.14;98941.16;106163;1254;60491;-71
2023/03/31 06:29:51;;;;;;;22.30;14.10;;;;;;;4.86;60.54;98941.58;105631;1253;74810;-73
2023/03/31 06:32:19;;;;;;;21.80;13.80;;;;;;;4.89;60.04;98932.66;105864;1253;71229;-72
2023/03/31 06:34:48;;;;;;;19.10;12.90;;;;;;;4.94;59.88;98932.34;105989;1256;74421;-72
2023/03/31 06:37:16;;;;;;;20.50;13.30;;;;;;;5.01;59.87;98927.98;105652;1257;60444;-72
2023/03/31 06:39:44;;;;;;;21.60;12.60;;;;;;;5.07;59.31;98924.34;105680;1254;60418;-72
2023/03/31 06:42:13;;;;;;;26.50;13.30;;;;;;;5.10;59.36;98919.84;105961;1257;74851;-73
2023/03/31 06:44:42;;;;;;;19.80;12.60;;;;;;;5.14;59.02;98915.11;106049;1254;71258;-72
2023/03/31 06:47:10;;;;;;;27.10;11.90;;;;;;;5.19;59.25;98914.30;105793;1260;72996;-74
2023/03/31 06:49:38;;;;;;;21.80;13.10;;;;;;;5.24;59.01;98905.95;105934;1254;61106;-73
2023/03/31 06:52:07;;;;;;;18.80;12.30;;;;;;;5.30;58.75;98906.21;105885;1253;60652;-75
2023/03/31 06:54:35;;;;;;;22.70;13.90;;;;;;;5.36;58.57;98901.61;105891;1257;73250;-73
2023/03/31 06:57:03;;;;;;;22.10;11.20;;;;;;;5.43;58.52;98898.52;105992;1254;69399;-74
2023/03/31 06:59:31;;;;;;;22.70;12.60;;;;;;;5.51;58.44;98892.41;105909;1254;71767;-71
2023/03/31 07:01:59;;;;;;;21.70;12.70;;;;;;;5.57;57.75;98889.39;105920;1254;61485;-73
2023/03/31 07:04:28;;;;;;;19.60;13.50;;;;;;;5.62;57.42;98886.38;106036;1254;61544;-72
2023/03/31 07:06:58;;;;;;;25.40;14.20;;;;;;;5.68;57.12;98889.96;106008;1254;74582;-75
2023/03/31 07:09:26;;;;;;;26.90;14.70;;;;;;;5.76;57.43;98886.51;105824;1254;71333;-73
2023/03/31 07:12:00;;;;;;;25.30;16.50;;;;;;;5.87;57.20;98880.98;106019;1254;73922;-72
2023/03/31 07:14:29;;;;;;;22.80;15.00;;;;;;;5.99;57.18;98881.35;106126;1254;60599;-72
2023/03/31 07:16:58;;;;;;;21.90;14.50;;;;;;;6.13;57.06;98882.41;105531;1254;60539;-71
2023/03/31 07:19:31;;;;;;;21.80;13.00;;;;;;;6.29;56.35;98878.20;105586;1258;74983;-71
2023/03/31 07:22:00;;;;;;;26.70;15.50;;;;;;;6.43;55.95;98881.10;106102;1257;69391;-71
2023/03/31 07:24:29;;;;;;;22.20;13.20;;;;;;;6.55;55.76;98880.39;105744;1259;72956;-70
2023/03/31 07:26:57;;;;;;;20.00;13.90;;;;;;;6.70;55.59;98880.96;106052;1256;60853;-71
2023/03/31 07:29:26;;;;;;;23.00;14.10;;;;;;;6.82;55.05;98878.23;105800;1254;60399;-73
2023/03/31 07:32:00;;;;;;;17.80;12.20;;;;;;;6.95;53.80;98877.17;105885;1258;74617;-73
2023/03/31 07:34:30;;;;;;;17.20;11.30;;;;;;;7.01;53.02;98880.96;105974;1257;69397;-72
2023/03/31 07:36:58;;;;;;;16.80;11.60;;;;;;;7.06;52.51;98879.63;105988;1254;71466;-72
2023/03/31 07:39:26;;;;;;;16.60;11.40;;;;;;;7.06;52.52;98874.73;105950;1254;60536;-74
2023/03/31 07:41:54;;;;;;;19.20;11.30;;;;;;;7.09;52.60;98872.11;106056;1254;60781;-74
2023/03/31 07:44:25;;;;;;;16.50;11.60;;;;;;;7.17;52.69;98868.23;106033;1256;72981;-74
2023/03/31 07:46:54;;;;;;;22.20;12.90;;;;;;;7.29;52.85;98864.35;105946;1254;71537;-72
2023/03/31 07:49:22;;;;;;;19.80;13.30;;;;;;;7.41;52.39;98861.41;106014;1254;73995;-71
2023/03/31 07:51:51;;;;;;;19.50;13.40;;;;;;;7.46;51.99;98853.88;105927;1253;60602;-71
2023/03/31 07:54:19;;;;;;;18.50;13.20;;;;;;;7.49;52.04;98851.58;105983;1254;60479;-73
2023/03/31 07:56:50;;;;;;;22.30;13.30;;;;;;;7.56;51.69;98848.16;105866;1253;74089;-72
2023/03/31 07:59:19;;;;;;;17.60;11.00;;;;;;;7.62;51.51;98856.29;105928;1254;70422;-71
2023/03/31 08:01:47;;;;;;;20.60;11.70;;;;;;;7.64;50.88;98853.18;105971;1254;71429;-72
2023/03/31 08:04:15;;;;;;;18.10;11.90;;;;;;;7.66;50.68;98850.55;106074;1254;60612;-73
2023/03/31 08:06:44;;;;;;;19.00;11.40;;;;;;;7.66;50.80;98851.49;105931;1257;60955;-72
2023/03/31 08:09:12;;;;;;;18.80;10.70;;;;;;;7.65;50.58;98851.56;105980;1254;74914;-71
2023/03/31 08:11:44;;;;;;;16.60;11.00;;;;;;;7.64;50.68;98839.66;106006;1253;70597;-71
2023/03/31 08:14:15;;;;;;;14.90;10.40;;;;;;;7.68;50.86;98842.23;106024;1254;72814;-72
2023/03/31 08:16:54;;;;;;;13.90;10.00;;;;;;;7.71;50.32;98836.60;105943;1254;60435;-71
2023/03/31 08:19:23;;;;;;;14.80;9.20;;;;;;;7.71;49.58;98838.81;106039;1254;61550;-69
2023/03/31 08:21:51;;;;;;;13.60;9.80;;;;;;;7.68;49.86;98835.20;105949;1254;71590;-70
2023/03/31 08:24:21;;;;;;;20.50;9.30;;;;;;;7.64;50.03;98835.23;105890;1254;71631;-72
2023/03/31 08:26:49;;;;;;;12.60;8.90;;;;;;;7.62;50.50;98831.08;106017;1257;71694;-72
2023/03/31 08:29:17;;;;;;;17.60;10.40;;;;;;;7.56;50.29;98830.35;106025;1256;60396;-71
2023/03/31 08:31:45;;;;;;;11.80;8.70;;;;;;;7.50;50.25;98825.09;106018;1254;61243;-71
2023/03/31 08:34:14;;;;;;;14.70;9.80;;;;;;;7.44;50.63;98823.19;105479;1256;75033;-73
2023/03/31 08:36:43;;;;;;;15.40;9.50;;;;;;;7.39;51.01;98822.02;106023;1254;70389;-73
2023/03/31 08:39:12;;;;;;;12.70;9.00;;;;;;;7.36;51.35;98825.55;105940;1254;74070;-73
2023/03/31 08:41:57;;;;;;;13.80;9.10;;;;;;;7.34;51.34;98818.92;105934;1254;60510;-72
2023/03/31 08:44:38;;;;;;;13.30;9.00;;;;;;;7.32;51.49;98813.45;105794;1254;60494;-72
2023/03/31 08:47:12;;;;;;;19.10;11.80;;;;;;;7.36;51.85;98810.69;105943;1254;74899;-70
2023/03/31 08:49:43;;;;;;;14.60;10.20;;;;;;;7.41;52.04;98805.91;105994;1257;70497;-72
2023/03/31 08:52:14;;;;;;;16.90;10.00;;;;;;;7.47;52.22;98802.27;106002;1253;72572;-73
2023/03/31 08:54:54;;;;;;;;;;;;;;;7.54;51.99;98800.45;106044;1254;60398;-74
2023/03/31 08:57:27;;;;;;;13.40;8.50;;;;;;;7.57;51.79;98804.53;105952;1254;61170;-73
2023/03/31 09:00:05;;;;;;;13.50;8.80;;;;;;;7.59;51.84;98802.92;106047;1254;74915;-71
2023/03/31 09:03:02;;;;;;;14.30;9.70;;;;;;;7.61;51.74;98799.66;105842;1254;71284;-74
2023/03/31 09:05:44;;;;;;;12.50;8.90;;;;;;;7.66;52.02;98799.11;105868;1254;72912;-72
2023/03/31 09:08:37;;;;;;;10.90;8.10;;;;;;;7.73;52.19;98790.76;105998;1253;60559;-71
2023/03/31 09:11:11;;;;;;;11.30;7.20;;;;;;;7.83;52.16;98792.79;105769;1254;61459;-73
2023/03/31 09:13:58;;;;;;;10.30;7.90;;;;;;;7.92;51.61;98792.63;105950;1254;72649;-72
2023/03/31 09:16:32;;;;;;;13.70;8.10;;;;;;;8.00;51.12;98788.59;105969;1254;70303;-72
2023/03/31 09:19:13;;;;;;;13.30;8.10;;;;;;;8.04;50.99;98789.55;105928;1259;73907;-72
2023/03/31 09:21:48;;;;;;;13.80;7.00;;;;;;;8.05;50.67;98781.77;105750;1254;60341;-74
2023/03/31 09:24:22;;;;;;;12.80;7.70;;;;;;;8.05;50.76;98771.57;106005;1253;61621;-71
2023/03/31 09:27:11;;;;;;;12.90;7.70;;;;;;;8.10;50.66;98764.73;105819;1259;73904;-73
2023/03/31 09:29:43;;;;;;;11.70;7.60;;;;;;;8.14;51.09;98754.54;105857;1259;68662;-71
2023/03/31 09:32:27;;;;;;;11.00;7.90;;;;;;;8.18;51.33;98755.00;105992;1254;73844;-73
2023/03/31 09:35:17;;;;;;;12.20;7.60;;;;;;;8.25;51.12;98754.16;105751;1254;60565;-73
2023/03/31 09:37:45;;;;;;;10.10;7.30;;;;;;;8.32;50.77;98759.37;105921;1257;60450;-73
2023/03/31 09:40:17;;;;;;;10.90;7.50;;;;;;;8.36;50.91;98758.98;106001;1254;74068;-73
2023/03/31 09:43:20;;;;;;;15.10;8.90;;;;;;;8.41;50.60;98755.70;106001;1258;70403;-72
2023/03/31 09:45:48;;;;;;;12.60;7.50;;;;;;;8.41;50.61;98761.13;105628;1259;71864;-73
2023/03/31 09:48:36;;;;;;;10.20;7.50;;;;;;;8.43;50.11;98760.69;105884;1259;60418;-72
2023/03/31 09:51:06;;;;;;;9.20;6.90;;;;;;;8.44;50.41;98757.11;105958;1253;60540;-71
2023/03/31 09:53:47;;;;;;;9.10;6.90;;;;;;;8.42;50.12;98755.90;106094;1257;73813;-73
2023/03/31 09:56:40;;;;;;;11.60;7.30;;;;;;;8.41;50.29;98744.33;105924;1257;69508;-73
2023/03/31 09:59:19;;;;;;;12.70;7.90;;;;;;;8.43;50.48;98739.26;105994;1254;73440;-73
2023/03/31 10:01:52;;;;;;;12.20;8.00;;;;;;;8.47;50.68;98745.52;105787;1254;60520;-71
2023/03/31 10:04:22;;;;;;;12.30;8.00;;;;;;;8.51;50.31;98737.80;105985;1254;61209;-71
2023/03/31 10:06:53;;;;;;;11.40;7.60;;;;;;;8.57;50.31;98735.95;105891;1257;74042;-72
2023/03/31 10:09:27;;;;;;;10.20;7.40;;;;;;;8.66;50.21;98731.80;105935;1253;71606;-71
2023/03/31 10:11:58;;;;;;;12.90;8.60;;;;;;;8.69;50.54;98730.38;105872;1253;71755;-73
2023/03/31 10:14:47;;;;;;;13.60;8.40;;;;;;;8.70;50.76;98725.14;105953;1254;60426;-74
2023/03/31 10:17:21;;;;;;;15.70;8.20;;;;;;;8.73;50.65;98721.21;105882;1251;61341;-72
2023/03/31 10:19:58;;;;;;;13.20;7.40;;;;;;;8.79;50.60;98721.73;105937;1254;74795;-73
2023/03/31 10:22:28;;;;;;;11.70;8.30;;;;;;;8.82;50.81;98718.44;106027;1254;71362;-72
2023/03/31 10:25:20;;;;;;;13.20;7.50;;;;;;;8.85;50.96;98709.60;106004;1252;71562;-74
2023/03/31 10:27:52;;;;;;;12.80;8.70;;;;;;;8.92;50.83;98712.45;105877;1253;61410;-73
2023/03/31 10:30:25;;;;;;;14.60;8.40;;;;;;;8.97;50.53;98713.79;105866;1254;60510;-72
2023/03/31 10:32:54;;;;;;;13.00;7.90;;;;;;;8.98;50.31;98705.08;105960;1254;73653;-70
2023/03/31 10:35:31;;;;;;;10.90;7.00;;;;;;;9.01;50.22;98706.67;106056;1253;70008;-70
2023/03/31 10:38:09;;;;;;;11.40;8.30;;;;;;;9.02;49.68;98705.42;105788;1258;73173;-72
2023/03/31 10:40:52;;;;;;;12.50;7.50;;;;;;;9.00;49.87;98706.61;105730;1254;61241;-72
2023/03/31 10:43:24;;;;;;;10.10;7.50;;;;;;;8.93;50.01;98692.91;106117;1254;60444;-70
2023/03/31 10:45:55;;;;;;;11.50;7.00;;;;;;;8.90;50.48;98693.61;105826;1259;73016;-71
2023/03/31 10:48:29;;;;;;;11.90;7.00;;;;;;;8.90;50.44;98688.91;105958;1256;68752;-72
2023/03/31 10:51:04;;;;;;;11.40;7.60;;;;;;;8.93;50.77;98688.02;105936;1254;72804;-72
2023/03/31 10:53:41;;;;;;;11.20;6.70;;;;;;;8.96;50.57;98692.19;105954;1254;61381;-74
2023/03/31 10:56:33;;;;;;;11.40;8.00;;;;;;;8.99;50.08;98694.74;106142;1256;61165;-73
2023/03/31 10:59:35;;;;;;;11.20;7.40;;;;;;;8.97;50.26;98691.05;105967;1254;73295;-73
2023/03/31 11:02:25;;;;;;;9.20;6.70;;;;;;;8.94;50.84;98686.85;105926;1256;70435;-72
2023/03/31 11:05:21;;;;;;;10.50;7.60;;;;;;;8.93;50.79;98684.12;105995;1253;72073;-71
2023/03/31 11:07:53;;;;;;;9.90;7.30;;;;;;;8.97;50.74;98684.54;106035;1251;60620;-72
2023/03/31 11:10:59;;;;;;;14.30;8.60;;;;;;;9.00;50.65;98676.34;105926;1253;60450;-72
2023/03/31 11:13:39;;;;;;;14.30;9.10;;;;;;;9.04;50.68;98677.66;105901;1256;74754;-71
2023/03/31 11:16:11;;;;;;;16.20;9.90;;;;;;;9.06;50.81;98672.02;105916;1254;70714;-71
2023/03/31 11:18:44;;;;;;;14.90;8.30;;;;;;;9.07;51.23;98667.05;105955;1254;70789;-72
2023/03/31 11:21:43;;;;;;;14.40;9.10;;;;;;;9.12;51.30;98659.38;106013;1256;60402;-70
2023/03/31 11:24:52;;;;;;;12.70;8.60;;;;;;;9.19;51.22;98652.41;106076;1254;60339;-71
2023/03/31 11:27:41;;;;;;;12.40;8.80;;;;;;;9.29;50.87;98645.67;106057;1256;73802;-72
2023/03/31 11:30:15;;;;;;;13.50;8.60;;;;;;;9.47;50.29;98637.91;105850;1256;70283;-71
2023/03/31 11:33:23;;;;;;;13.80;9.50;;;;;;;9.81;49.67;98643.55;105873;1254;71570;-71
2023/03/31 11:36:25;;;;;;;14.80;9.70;;;;;;;10.31;48.51;98634.88;105958;1254;60456;-74
2023/03/31 11:39:06;;;;;;;12.60;9.70;;;;;;;10.70;48.08;98626.83;106033;1253;60530;-74
2023/03/31 11:41:42;;;;;;;16.70;9.80;;;;;;;11.06;47.03;98635.31;106077;1253;74190;-73
2023/03/31 11:44:11;;;;;;;12.40;10.20;;;;;;;11.30;46.28;98631.71;106044;1253;69770;-73
2023/03/31 11:46:46;;;;;;;13.00;9.40;;;;;;;11.43;45.32;98630.65;105803;1259;73740;-73
2023/03/31 11:49:28;;;;;;;16.50;9.90;;;;;;;11.44;45.18;98631.84;106030;1254;61473;-71
2023/03/31 11:52:02;;;;;;;16.80;11.10;;;;;;;11.40;45.42;98628.60;105988;1254;60406;-72